createdAt,value
2019-05-22T00:01:02.510Z,14.40
2019-05-22T00:03:34.950Z,14.30
2019-05-22T00:06:09.593Z,14.30
2019-05-22T00:08:40.609Z,14.30
2019-05-22T00:11:08.370Z,14.30
2019-05-22T00:13:42.382Z,14.20
2019-05-22T00:16:11.857Z,14.10
2019-05-22T00:18:41.753Z,14.00
2019-05-22T00:21:15.269Z,14.00
2019-05-22T00:23:45.288Z,14.00
2019-05-22T00:26:16.794Z,13.90
2019-05-22T00:28:46.317Z,13.90
2019-05-22T00:31:18.110Z,13.90
2019-05-22T00:33:52.269Z,13.80
2019-05-22T00:36:26.138Z,13.80
2019-05-22T00:38:57.702Z,13.80
2019-05-22T00:41:36.238Z,13.70
2019-05-22T00:44:09.014Z,13.80
2019-05-22T00:46:58.531Z,13.70
2019-05-22T00:49:28.449Z,13.80
2019-05-22T00:52:16.743Z,13.70
2019-05-22T00:55:00.720Z,13.60
2019-05-22T00:57:53.258Z,13.70
2019-05-22T01:03:23.163Z,13.50
2019-05-22T01:05:51.635Z,13.40
2019-05-22T01:08:26.695Z,13.40
2019-05-22T01:10:57.114Z,13.40
2019-05-22T01:13:29.234Z,13.30
2019-05-22T01:16:09.395Z,13.30
2019-05-22T01:18:44.665Z,13.20
2019-05-22T01:21:14.790Z,13.20
2019-05-22T01:23:46.111Z,13.30
2019-05-22T01:26:27.626Z,13.20
2019-05-22T01:28:56.390Z,13.20
2019-05-22T01:31:38.216Z,13.20
2019-05-22T01:34:10.956Z,13.10
2019-05-22T01:37:00.151Z,13.30
2019-05-22T01:39:54.947Z,13.30
2019-05-22T01:42:38.934Z,13.10
2019-05-22T01:45:21.543Z,13.00
2019-05-22T01:48:02.603Z,12.50
2019-05-22T01:53:43.480Z,13.00
2019-05-22T01:56:16.752Z,12.90
2019-05-22T01:58:45.036Z,12.90
2019-05-22T02:01:25.271Z,12.90
2019-05-22T02:04:04.683Z,12.90
2019-05-22T02:06:33.885Z,12.80
2019-05-22T02:09:21.246Z,12.70
2019-05-22T02:11:56.606Z,12.80
2019-05-22T02:14:26.934Z,12.80
2019-05-22T02:17:03.692Z,12.70
2019-05-22T02:19:36.011Z,13.40
2019-05-22T02:22:07.982Z,12.70
2019-05-22T02:24:40.112Z,12.30
2019-05-22T02:27:13.894Z,12.70
2019-05-22T02:29:45.190Z,12.70
2019-05-22T02:32:18.567Z,12.70
2019-05-22T02:34:50.354Z,12.70
2019-05-22T02:37:25.231Z,12.70
2019-05-22T02:39:53.596Z,12.70
2019-05-22T02:42:28.235Z,12.60
2019-05-22T02:45:04.746Z,12.70
2019-05-22T02:47:38.433Z,12.70
2019-05-22T02:50:15.235Z,12.70
2019-05-22T02:53:01.175Z,12.70
2019-05-22T02:55:47.984Z,12.80
2019-05-22T02:58:22.475Z,12.60
2019-05-22T03:00:58.995Z,12.70
2019-05-22T03:03:38.142Z,12.70
2019-05-22T03:06:14.312Z,12.70
2019-05-22T03:09:11.766Z,12.70
2019-05-22T03:11:41.918Z,12.70
2019-05-22T03:14:20.890Z,12.70
2019-05-22T03:16:56.685Z,12.70
2019-05-22T03:19:37.975Z,12.80
2019-05-22T03:22:22.847Z,12.70
2019-05-22T03:24:59.377Z,12.70
2019-05-22T03:27:45.781Z,12.70
2019-05-22T03:30:26.683Z,12.60
2019-05-22T03:33:08.198Z,12.60
2019-05-22T03:35:46.282Z,13.50
2019-05-22T03:38:22.770Z,12.70
2019-05-22T03:41:01.757Z,12.70
2019-05-22T03:44:06.789Z,12.60
2019-05-22T03:47:02.202Z,12.60
2019-05-22T03:49:39.019Z,12.60
2019-05-22T03:52:12.382Z,12.60
2019-05-22T03:57:46.501Z,12.60
2019-05-22T04:00:21.912Z,12.60
2019-05-22T04:03:05.855Z,12.60
2019-05-22T04:05:43.168Z,12.60
2019-05-22T04:08:20.768Z,12.50
2019-05-22T04:11:06.890Z,12.50
2019-05-22T04:13:39.416Z,12.50
2019-05-22T04:16:17.342Z,12.50
2019-05-22T04:18:57.640Z,12.60
2019-05-22T04:21:29.164Z,12.30
2019-05-22T04:26:59.186Z,12.30
2019-05-22T04:32:37.393Z,12.30
2019-05-22T04:35:26.428Z,12.20
2019-05-22T04:37:56.615Z,12.20
2019-05-22T04:40:53.833Z,12.20
2019-05-22T04:49:02.020Z,12.20
2019-05-22T04:51:38.506Z,12.20
2019-05-22T04:54:08.342Z,12.10
2019-05-22T04:56:42.970Z,11.90
2019-05-22T04:59:33.092Z,12.00
2019-05-22T05:02:07.460Z,12.10
2019-05-22T05:04:40.904Z,12.10
2019-05-22T05:10:07.821Z,12.00
2019-05-22T05:12:37.928Z,12.00
2019-05-22T05:17:59.248Z,12.10
2019-05-22T05:20:35.998Z,12.10
2019-05-22T05:23:14.439Z,12.00
2019-05-22T05:25:47.306Z,12.00
2019-05-22T05:28:16.745Z,11.90
2019-05-22T05:30:54.155Z,12.10
2019-05-22T05:33:24.803Z,11.90
2019-05-22T05:35:58.476Z,13.70
2019-05-22T05:38:38.102Z,11.80
2019-05-22T05:41:07.644Z,11.80
2019-05-22T05:43:37.293Z,11.90
2019-05-22T05:46:31.333Z,11.50
2019-05-22T05:49:04.712Z,11.90
2019-05-22T05:51:44.543Z,11.80
2019-05-22T05:54:20.613Z,11.80
2019-05-22T05:56:50.626Z,11.90
2019-05-22T05:59:20.043Z,11.80
2019-05-22T06:01:54.356Z,11.70
2019-05-22T06:04:35.361Z,11.80
2019-05-22T06:07:24.493Z,11.70
2019-05-22T06:10:32.202Z,11.70
2019-05-22T06:13:02.812Z,11.70
2019-05-22T06:15:46.437Z,11.80
2019-05-22T06:18:38.717Z,11.80
2019-05-22T06:21:19.782Z,11.90
2019-05-22T06:24:19.607Z,11.90
2019-05-22T06:27:28.016Z,11.80
2019-05-22T06:30:03.809Z,11.80
2019-05-22T06:33:17.316Z,11.80
2019-05-22T06:35:51.386Z,12.20
2019-05-22T06:38:53.840Z,11.80
2019-05-22T06:41:25.941Z,11.90
2019-05-22T06:44:39.279Z,11.90
2019-05-22T06:47:15.523Z,11.80
2019-05-22T06:49:59.005Z,11.80
2019-05-22T06:52:42.263Z,11.80
2019-05-22T06:55:09.684Z,11.80
2019-05-22T06:58:04.490Z,11.80
2019-05-22T07:00:39.778Z,11.90
2019-05-22T07:03:17.076Z,11.90
2019-05-22T07:05:52.974Z,11.90
2019-05-22T07:08:27.230Z,11.80
2019-05-22T07:10:56.508Z,11.70
2019-05-22T07:13:29.757Z,12.00
2019-05-22T07:16:03.918Z,11.80
2019-05-22T07:18:36.527Z,11.70
2019-05-22T07:21:06.135Z,11.60
2019-05-22T07:23:36.600Z,13.40
2019-05-22T07:26:09.529Z,12.40
2019-05-22T07:28:43.669Z,11.70
2019-05-22T07:31:17.455Z,11.70
2019-05-22T07:33:59.507Z,12.20
2019-05-22T07:36:34.539Z,11.60
2019-05-22T07:39:08.232Z,11.50
2019-05-22T07:41:40.900Z,11.60
2019-05-22T07:44:09.211Z,11.70
2019-05-22T07:46:40.301Z,11.40
2019-05-22T07:49:10.430Z,11.70
2019-05-22T07:51:53.219Z,11.80
2019-05-22T07:54:15.494Z,11.70
2019-05-22T07:56:55.371Z,11.60
2019-05-22T07:59:28.977Z,11.70
2019-05-22T08:02:00.568Z,11.70
2019-05-22T08:04:38.619Z,11.70
2019-05-22T08:07:10.148Z,11.70
2019-05-22T08:09:54.523Z,11.70
2019-05-22T08:12:21.273Z,11.70
2019-05-22T08:14:59.469Z,11.80
2019-05-22T08:17:32.289Z,11.80
2019-05-22T08:20:03.552Z,11.90
2019-05-22T08:22:38.174Z,11.80
2019-05-22T08:25:09.202Z,11.90
2019-05-22T08:27:40.512Z,11.70
2019-05-22T08:30:13.707Z,11.70
2019-05-22T08:32:47.780Z,11.70
2019-05-22T08:35:23.585Z,11.70
2019-05-22T08:37:57.163Z,11.70
2019-05-22T08:40:34.620Z,11.60
2019-05-22T08:43:07.455Z,11.60
2019-05-22T08:45:53.180Z,12.30
2019-05-22T08:48:27.137Z,11.70
2019-05-22T08:51:02.065Z,11.50
2019-05-22T08:53:46.221Z,11.60
2019-05-22T08:56:06.113Z,11.50
2019-05-22T08:58:35.966Z,11.60
2019-05-22T09:01:19.971Z,11.60
2019-05-22T09:03:49.728Z,11.50
2019-05-22T09:06:21.245Z,11.50
2019-05-22T09:08:45.955Z,11.50
2019-05-22T09:11:22.197Z,11.60
2019-05-22T09:13:49.960Z,11.50
2019-05-22T09:16:24.949Z,11.50
2019-05-22T09:18:55.861Z,11.70
2019-05-22T09:21:27.285Z,11.50
2019-05-22T09:24:02.197Z,12.90
2019-05-22T09:26:37.798Z,11.60
2019-05-22T09:29:28.070Z,11.70
2019-05-22T09:35:15.398Z,11.90
2019-05-22T09:38:03.071Z,12.00
2019-05-22T09:41:11.848Z,11.90
2019-05-22T09:43:48.192Z,11.90
2019-05-22T09:46:29.890Z,11.70
2019-05-22T09:49:10.388Z,11.60
2019-05-22T09:51:40.764Z,11.80
2019-05-22T09:57:07.269Z,11.60
2019-05-22T09:59:54.044Z,11.60
2019-05-22T10:02:22.410Z,11.70
2019-05-22T10:04:49.899Z,11.50
2019-05-22T10:07:19.682Z,11.50
2019-05-22T10:09:49.755Z,11.50
2019-05-22T10:15:30.968Z,11.70
2019-05-22T10:18:04.095Z,11.70
2019-05-22T10:20:45.572Z,11.80
2019-05-22T10:27:11.215Z,11.70
2019-05-22T10:29:48.996Z,10.80
2019-05-22T10:32:21.439Z,12.00
2019-05-22T10:34:51.205Z,12.00
2019-05-22T10:43:29.593Z,13.10
2019-05-22T10:46:08.461Z,12.10
2019-05-22T10:48:39.989Z,12.10
2019-05-22T10:51:08.951Z,13.50
2019-05-22T10:53:44.280Z,12.10
2019-05-22T10:56:19.167Z,12.00
2019-05-22T10:58:55.776Z,12.00
2019-05-22T11:01:26.330Z,12.00
2019-05-22T11:04:04.342Z,12.10
2019-05-22T11:06:32.558Z,12.20
2019-05-22T11:09:25.471Z,12.30
2019-05-22T11:12:15.576Z,13.30
2019-05-22T11:14:59.001Z,12.30
2019-05-22T11:17:46.808Z,13.10
2019-05-22T11:20:24.015Z,12.70
2019-05-22T11:22:56.423Z,12.00
2019-05-22T11:25:30.407Z,12.10
2019-05-22T11:28:05.520Z,13.10
2019-05-22T11:30:36.782Z,12.10
2019-05-22T11:33:15.887Z,12.60
2019-05-22T11:35:46.649Z,12.10
2019-05-22T11:38:15.043Z,13.00
2019-05-22T11:40:57.847Z,12.50
2019-05-22T11:49:35.446Z,12.10
2019-05-22T11:52:05.808Z,12.10
2019-05-22T11:57:26.981Z,12.20
2019-05-22T12:00:09.223Z,12.20
2019-05-22T12:02:40.820Z,12.20
2019-05-22T12:05:16.485Z,12.30
2019-05-22T12:07:48.007Z,12.30
2019-05-22T12:10:23.322Z,12.70
2019-05-22T12:12:59.752Z,12.20
2019-05-22T12:15:41.704Z,12.20
2019-05-22T12:18:11.510Z,12.20
2019-05-22T12:23:37.127Z,12.20
2019-05-22T12:26:14.137Z,11.20
2019-05-22T12:28:45.625Z,12.20
2019-05-22T12:31:24.736Z,12.20
2019-05-22T12:33:53.670Z,12.20
2019-05-22T12:36:24.765Z,12.10
2019-05-22T12:41:51.477Z,12.00
2019-05-22T12:47:29.870Z,12.60
2019-05-22T12:50:08.522Z,12.10
2019-05-22T12:52:46.088Z,12.10
2019-05-22T12:55:20.673Z,12.20
2019-05-22T12:57:49.211Z,12.20
2019-05-22T13:00:32.748Z,11.60
2019-05-22T13:06:06.852Z,12.10
2019-05-22T13:08:42.863Z,12.40
2019-05-22T13:16:56.205Z,11.90
2019-05-22T13:22:44.459Z,12.00
2019-05-22T13:25:17.713Z,12.00
2019-05-22T13:31:16.699Z,12.00
2019-05-22T13:37:06.671Z,13.00
2019-05-22T13:42:45.089Z,12.20
2019-05-22T13:45:29.408Z,12.10
2019-05-22T13:47:59.667Z,12.10
2019-05-22T13:50:47.845Z,12.10
2019-05-22T13:53:17.380Z,12.00
2019-05-22T13:56:13.645Z,12.20
2019-05-22T13:59:10.597Z,12.20
2019-05-22T14:01:41.177Z,12.30
2019-05-22T14:04:48.373Z,12.20
2019-05-22T14:07:27.480Z,12.40
2019-05-22T14:10:21.028Z,12.20
2019-05-22T14:12:41.827Z,12.40
2019-05-22T14:18:09.077Z,12.60
2019-05-22T14:20:43.095Z,12.90
2019-05-22T14:23:22.916Z,12.40
2019-05-22T14:25:59.631Z,12.40
2019-05-22T14:28:37.781Z,12.40
2019-05-22T14:31:13.971Z,12.40
2019-05-22T14:33:49.486Z,12.40
2019-05-22T14:36:18.591Z,12.50
2019-05-22T14:38:48.788Z,12.50
2019-05-22T14:41:21.588Z,12.50
2019-05-22T14:44:02.842Z,12.60
2019-05-22T14:52:29.188Z,12.50
2019-05-22T14:55:10.668Z,12.60
2019-05-22T14:57:46.122Z,13.30
2019-05-22T15:00:35.533Z,14.30
2019-05-22T15:03:03.502Z,12.70
2019-05-22T15:05:40.428Z,11.60
2019-05-22T15:08:14.899Z,12.60
2019-05-22T15:10:46.555Z,12.40
2019-05-22T15:13:36.408Z,12.40
2019-05-22T15:16:09.539Z,12.30
2019-05-22T15:18:41.303Z,12.90
2019-05-22T15:21:18.574Z,12.50
2019-05-22T15:23:50.063Z,12.70
2019-05-22T15:26:34.125Z,13.60
2019-05-22T15:28:57.807Z,12.60
2019-05-22T15:31:26.674Z,13.50
2019-05-22T15:33:55.167Z,12.50
2019-05-22T15:36:25.325Z,12.40
2019-05-22T15:38:55.645Z,12.60
2019-05-22T15:41:33.604Z,12.60
2019-05-22T15:44:05.503Z,12.50
2019-05-22T15:46:37.476Z,12.10
2019-05-22T15:49:12.160Z,12.50
2019-05-22T15:51:49.004Z,12.60
2019-05-22T15:54:21.954Z,13.10
2019-05-22T15:57:22.031Z,12.70
2019-05-22T16:00:02.219Z,12.80
2019-05-22T16:05:29.578Z,13.10
2019-05-22T16:07:59.756Z,13.10
2019-05-22T16:10:43.683Z,13.00
2019-05-22T16:13:23.582Z,13.00
2019-05-22T16:15:55.876Z,13.30
2019-05-22T16:18:36.207Z,13.40
2019-05-22T16:21:23.756Z,13.30
2019-05-22T16:23:51.292Z,13.10
2019-05-22T16:26:23.471Z,13.20
2019-05-22T16:28:53.580Z,13.10
2019-05-22T16:31:31.439Z,13.20
2019-05-22T16:33:59.231Z,13.50
2019-05-22T16:36:28.353Z,13.90
2019-05-22T16:38:56.944Z,14.30
2019-05-22T16:41:28.712Z,15.10
2019-05-22T16:44:19.684Z,15.00
2019-05-22T16:46:56.299Z,14.30
2019-05-22T16:49:50.212Z,13.90
2019-05-22T16:52:25.669Z,13.60
2019-05-22T16:54:53.489Z,13.60
2019-05-22T16:57:23.527Z,14.00
2019-05-22T16:59:54.828Z,14.20
2019-05-22T17:02:31.713Z,15.10
2019-05-22T17:05:02.357Z,15.00
2019-05-22T17:07:31.030Z,15.30
2019-05-22T17:10:16.632Z,15.90
2019-05-22T17:12:41.527Z,16.90
2019-05-22T17:15:24.959Z,15.00
2019-05-22T17:17:58.995Z,14.90
2019-05-22T17:20:37.923Z,15.10
2019-05-22T17:23:24.557Z,15.20
2019-05-22T17:26:15.179Z,15.30
2019-05-22T17:28:49.510Z,15.10
2019-05-22T17:31:20.313Z,15.50
2019-05-22T17:33:59.129Z,15.50
2019-05-22T17:36:35.440Z,15.40
2019-05-22T17:39:25.086Z,15.60
2019-05-22T17:42:16.768Z,15.90
2019-05-22T17:47:45.324Z,16.20
2019-05-22T17:50:28.865Z,15.90
2019-05-22T17:52:58.260Z,16.00
2019-05-22T17:55:32.232Z,16.00
2019-05-22T17:58:01.893Z,15.70
2019-05-22T18:00:52.363Z,14.70
2019-05-22T18:03:29.138Z,15.20
2019-05-22T18:06:27.539Z,15.40
2019-05-22T18:09:19.406Z,15.80
2019-05-22T18:12:06.684Z,15.60
2019-05-22T18:17:35.100Z,15.40
2019-05-22T18:20:09.980Z,15.00
2019-05-22T18:22:44.739Z,15.00
2019-05-22T18:33:50.983Z,14.00
2019-05-22T18:36:26.875Z,13.50
2019-05-22T18:39:19.261Z,14.30
2019-05-22T18:42:03.244Z,14.20
2019-05-22T18:44:36.861Z,14.20
2019-05-22T18:47:09.612Z,14.10
2019-05-22T18:49:43.592Z,14.00
2019-05-22T18:52:11.608Z,13.80
2019-05-22T18:54:40.702Z,13.40
2019-05-22T18:57:24.023Z,13.20
2019-05-22T19:00:05.891Z,13.00
2019-05-22T19:02:35.643Z,12.90
2019-05-22T19:05:09.770Z,12.70
2019-05-22T19:08:06.000Z,12.60
2019-05-22T19:10:35.319Z,12.60
2019-05-22T19:13:04.212Z,12.50
2019-05-22T19:15:33.169Z,12.50
2019-05-22T19:18:12.372Z,12.50
2019-05-22T19:20:54.530Z,12.50
2019-05-22T19:23:54.682Z,12.40
2019-05-22T19:26:23.527Z,12.40
2019-05-22T19:28:51.863Z,12.30
2019-05-22T19:31:23.223Z,12.20
2019-05-22T19:34:08.475Z,12.20
2019-05-22T19:36:38.220Z,12.70
2019-05-22T19:39:08.762Z,12.10
2019-05-22T19:41:37.863Z,12.40
2019-05-22T19:44:11.828Z,12.00
2019-05-22T19:46:42.523Z,12.00
2019-05-22T19:49:15.697Z,11.90
2019-05-22T19:51:45.568Z,11.50
2019-05-22T19:54:14.289Z,11.90
2019-05-22T19:56:44.483Z,11.70
2019-05-22T19:59:29.781Z,11.60
2019-05-22T20:01:58.408Z,11.60
2019-05-22T20:04:58.201Z,11.50
2019-05-22T20:07:36.979Z,11.40
2019-05-22T20:10:25.608Z,11.50
2019-05-22T20:13:06.210Z,11.50
2019-05-22T20:16:00.283Z,11.50
2019-05-22T20:18:26.450Z,11.00
2019-05-22T20:23:51.188Z,11.40
2019-05-22T20:26:21.226Z,11.50
2019-05-22T20:28:53.674Z,11.50
2019-05-22T20:31:22.643Z,11.40
2019-05-22T20:34:02.559Z,11.40
2019-05-22T20:36:32.801Z,11.40
2019-05-22T20:39:16.598Z,11.30
2019-05-22T20:41:50.657Z,11.30
2019-05-22T20:44:20.767Z,11.30
2019-05-22T20:46:50.616Z,11.30
2019-05-22T20:49:22.173Z,11.20
2019-05-22T20:51:57.520Z,12.20
2019-05-22T20:54:34.726Z,11.10
2019-05-22T20:57:09.230Z,11.50
2019-05-22T21:00:11.980Z,10.90
2019-05-22T21:03:26.648Z,10.90
2019-05-22T21:06:17.057Z,10.80
2019-05-22T21:11:45.682Z,10.80
2019-05-22T21:14:22.128Z,10.70
2019-05-22T21:16:54.221Z,10.70
2019-05-22T21:19:23.861Z,10.60
2019-05-22T21:21:54.121Z,10.50
2019-05-22T21:24:26.240Z,10.70
2019-05-22T21:29:59.501Z,10.70
2019-05-22T21:32:38.394Z,10.60
2019-05-22T21:35:13.838Z,10.50
2019-05-22T21:37:44.367Z,10.40
2019-05-22T21:40:15.783Z,10.50
2019-05-22T21:42:46.684Z,10.40
2019-05-22T21:45:15.291Z,10.40
2019-05-22T21:47:52.986Z,10.40
2019-05-22T21:50:28.563Z,10.30
2019-05-22T21:53:11.791Z,10.40
2019-05-22T21:55:45.795Z,10.30
2019-05-22T21:58:30.906Z,10.40
2019-05-22T22:01:25.703Z,10.30
2019-05-22T22:04:30.102Z,10.20
2019-05-22T22:07:23.499Z,10.30
2019-05-22T22:09:53.627Z,10.30
2019-05-22T22:12:24.973Z,10.20
2019-05-22T22:14:57.164Z,10.20
2019-05-22T22:17:33.480Z,10.30
2019-05-22T22:20:01.460Z,10.20
2019-05-22T22:22:48.858Z,10.30
2019-05-22T22:25:18.263Z,10.10
2019-05-22T22:27:46.397Z,10.10
2019-05-22T22:30:26.858Z,10.00
2019-05-22T22:33:00.504Z,10.00
2019-05-22T22:35:33.030Z,10.00
2019-05-22T22:38:05.103Z,10.00
2019-05-22T22:40:38.768Z,9.90
2019-05-22T22:43:36.712Z,9.90
2019-05-22T22:46:50.072Z,9.90
2019-05-22T22:49:35.200Z,9.90
2019-05-22T22:52:10.560Z,9.90
2019-05-22T22:54:44.086Z,9.90
2019-05-22T22:57:18.439Z,10.10
2019-05-22T23:00:12.407Z,9.90
2019-05-22T23:02:43.723Z,9.80
2019-05-22T23:05:14.625Z,9.70
2019-05-22T23:07:53.107Z,9.70
2019-05-22T23:10:26.077Z,9.70
2019-05-22T23:12:59.039Z,9.60
2019-05-22T23:15:31.002Z,9.60
2019-05-22T23:18:01.634Z,9.50
2019-05-22T23:20:55.814Z,9.50
2019-05-22T23:23:30.521Z,9.50
2019-05-22T23:25:59.016Z,9.50
2019-05-22T23:28:35.062Z,9.40
2019-05-22T23:31:02.862Z,9.40
2019-05-22T23:33:43.957Z,9.40
2019-05-22T23:36:14.735Z,9.40
2019-05-22T23:38:42.984Z,9.40
2019-05-22T23:41:14.402Z,9.30
2019-05-22T23:43:49.702Z,9.20
2019-05-22T23:46:20.512Z,9.20
2019-05-22T23:49:03.221Z,9.20
2019-05-22T23:51:35.937Z,9.20
2019-05-22T23:54:12.996Z,10.10
2019-05-22T23:57:10.594Z,9.00
2019-05-22T23:59:49.051Z,9.00
